Cessnock, New South Wales

6:09 AM AEST on July 25, 2016 (GMT +1000)
INSWQUOR2 | | Change Station

Elev 522 ft 32.91 °S, 151.38 °E | Updated 17 seconds ago

Clear
Clear
43.9 °F
Feels Like 40 °F
N
6.9
Wind Variable Wind from NW
Gusts 7.4 mph

Today
High -- | Low -- °F
--% Chance of Precip.
Yesterday
High -- | Low -- °F
Precip. -- in
Pressure 29.92 in
Visibility 6.2 miles
Clouds
Windchill 40 °F
Dew Point 38 °F
Humidity 79%
Rainfall 0.00 in
Snow Depth Not available.
6:50 AM 5:12 PM
Waning Gibbous, 73% visible
METAR YWLM 242000Z AUTO 30015KT 9999 // NCD 09/04 Q1013
Pressure 29.92 in
Visibility 6.2 miles
Clouds
Windchill 40 °F
Dew Point 38 °F
Humidity 79%
Rainfall 0.00 in
Snow Depth Not available.
6:50 AM 5:12 PM
Waning Gibbous, 73% visible
METAR YWLM 242000Z AUTO 30015KT 9999 // NCD 09/04 Q1013

10-Day Weather Forecast

Almanac

Astronomy

Jul. 25, 2016 Rise Set
Actual Time
Civil Twilight
Nautical Twilight
Astronomical Twilight
Moon
Length of Visible Light
Length of Day
Tomorrow will be .
, % of the Moon is Illuminated

Today's Extremes

Country Highs Country Lows

Community

WunderPhotos

Upload Photos

1,927,178 photos uploaded!

WunderBlog® & News

Nearby

Air Quality

  Air Quality AQ Index Pollutant
Not available.

Snow Depth

Station Depth Elevation

Earthquake Activity

City Distance Mag. Time & Date
Minimum magnitude displayed is 2.5.

Coastal Water Temperatures

Place Temperature

Stations

Nearby Weather Stations

Station Location Temp. Windchill Dew Point Humidity Wind Precip. Elev Updated Type